createdAt,value
2023-05-07T00:03:02.386Z,10.20
2023-05-07T00:06:24.236Z,10.10
2023-05-07T00:09:46.116Z,10.10
2023-05-07T00:13:08.946Z,10.10
2023-05-07T00:16:30.481Z,10.10
2023-05-07T00:19:51.910Z,10.10
2023-05-07T00:23:13.398Z,10.10
2023-05-07T00:26:34.727Z,10.00
2023-05-07T00:29:57.422Z,10.00
2023-05-07T00:33:18.687Z,9.90
2023-05-07T00:36:40.055Z,10.00
2023-05-07T00:40:01.479Z,10.10
2023-05-07T00:43:23.061Z,10.10
2023-05-07T00:46:49.782Z,10.10
2023-05-07T00:50:13.581Z,10.10
2023-05-07T00:53:35.608Z,10.10
2023-05-07T00:56:58.009Z,10.10
2023-05-07T01:00:21.044Z,10.10
2023-05-07T01:03:44.183Z,10.10
2023-05-07T01:07:07.202Z,10.10
2023-05-07T01:10:31.493Z,10.10
2023-05-07T01:13:53.361Z,10.10
2023-05-07T01:17:15.058Z,10.10
2023-05-07T01:20:37.993Z,10.10
2023-05-07T01:24:01.037Z,10.10
2023-05-07T01:27:22.220Z,10.10
2023-05-07T01:30:45.404Z,10.10
2023-05-07T01:34:09.288Z,10.10
2023-05-07T01:37:30.888Z,10.10
2023-05-07T01:40:54.188Z,10.10
2023-05-07T01:44:16.585Z,10.10
2023-05-07T01:47:38.574Z,10.10
2023-05-07T01:51:00.963Z,10.10
2023-05-07T01:54:28.598Z,10.00
2023-05-07T01:57:51.282Z,9.90
2023-05-07T02:01:12.467Z,10.00
2023-05-07T02:04:34.051Z,10.00
2023-05-07T02:07:55.573Z,10.10
2023-05-07T02:11:17.188Z,10.10
2023-05-07T02:14:40.053Z,10.00
2023-05-07T02:18:02.555Z,10.00
2023-05-07T02:21:24.300Z,10.10
2023-05-07T02:24:45.623Z,10.00
2023-05-07T02:28:07.195Z,10.00
2023-05-07T02:31:30.216Z,10.00
2023-05-07T02:34:53.263Z,10.00
2023-05-07T02:38:14.980Z,10.00
2023-05-07T02:41:36.549Z,10.00
2023-05-07T02:44:57.851Z,10.00
2023-05-07T02:48:20.648Z,10.00
2023-05-07T02:51:41.926Z,10.00
2023-05-07T02:55:03.570Z,10.10
2023-05-07T02:58:25.134Z,10.00
2023-05-07T03:01:46.510Z,10.00
2023-05-07T03:05:09.865Z,9.90
2023-05-07T03:08:32.319Z,10.00
2023-05-07T03:11:54.038Z,10.00
2023-05-07T03:15:15.273Z,10.00
2023-05-07T03:18:36.810Z,9.90
2023-05-07T03:22:00.068Z,9.90
2023-05-07T03:25:21.888Z,10.00
2023-05-07T03:28:43.267Z,9.90
2023-05-07T03:32:04.501Z,10.00
2023-05-07T03:35:25.786Z,9.90
2023-05-07T03:38:49.091Z,9.90
2023-05-07T03:42:10.495Z,9.90
2023-05-07T03:45:31.886Z,9.90
2023-05-07T03:48:53.346Z,9.90
2023-05-07T03:52:15.523Z,10.00
2023-05-07T03:55:38.021Z,10.00
2023-05-07T03:58:59.523Z,10.00
2023-05-07T04:02:20.868Z,10.00
2023-05-07T04:05:42.707Z,10.00
2023-05-07T04:09:04.628Z,10.00
2023-05-07T04:12:27.270Z,10.00
2023-05-07T04:15:50.262Z,10.10
2023-05-07T04:19:11.710Z,10.00
2023-05-07T04:22:33.134Z,10.20
2023-05-07T04:25:55.361Z,10.10
2023-05-07T04:29:18.198Z,10.10
2023-05-07T04:32:40.044Z,10.10
2023-05-07T04:36:04.875Z,10.10
2023-05-07T04:39:26.230Z,10.10
2023-05-07T04:42:47.937Z,10.10
2023-05-07T04:46:11.066Z,10.10
2023-05-07T04:49:32.741Z,10.10
2023-05-07T04:52:54.042Z,10.10
2023-05-07T04:56:15.722Z,10.10
2023-05-07T04:59:37.005Z,10.10
2023-05-07T05:03:00.010Z,10.10
2023-05-07T05:06:21.339Z,10.10
2023-05-07T05:09:42.874Z,10.10
2023-05-07T05:13:04.031Z,10.20
2023-05-07T05:16:25.698Z,10.00
2023-05-07T05:20:28.070Z,10.10
2023-05-07T05:23:49.642Z,10.20
2023-05-07T05:27:11.145Z,10.20
2023-05-07T05:30:32.343Z,10.20
2023-05-07T05:33:53.980Z,10.20
2023-05-07T05:37:17.033Z,10.20
2023-05-07T05:40:38.152Z,10.20
2023-05-07T05:43:59.726Z,10.20
2023-05-07T05:47:21.235Z,10.30
2023-05-07T05:50:44.175Z,10.30
2023-05-07T05:54:07.086Z,10.40
2023-05-07T05:57:28.937Z,10.30
2023-05-07T06:00:53.180Z,10.40
2023-05-07T06:04:14.678Z,10.40
2023-05-07T06:07:36.579Z,10.40
2023-05-07T06:11:00.233Z,10.40
2023-05-07T06:14:21.952Z,10.40
2023-05-07T06:17:43.322Z,10.40
2023-05-07T06:21:04.922Z,10.50
2023-05-07T06:24:26.727Z,10.50
2023-05-07T06:27:49.598Z,10.50
2023-05-07T06:31:14.977Z,10.50
2023-05-07T06:34:36.534Z,10.50
2023-05-07T06:37:57.756Z,10.50
2023-05-07T06:41:19.324Z,10.50
2023-05-07T06:44:41.858Z,10.60
2023-05-07T06:48:03.473Z,10.60
2023-05-07T06:51:25.410Z,10.60
2023-05-07T06:54:46.951Z,10.60
2023-05-07T06:58:08.243Z,10.60
2023-05-07T07:01:31.217Z,10.60
2023-05-07T07:04:52.599Z,10.70
2023-05-07T07:08:13.947Z,10.70
2023-05-07T07:11:35.015Z,10.80
2023-05-07T07:14:56.667Z,10.90
2023-05-07T07:18:19.170Z,10.90
2023-05-07T07:21:40.404Z,10.90
2023-05-07T07:25:01.758Z,11.00
2023-05-07T07:28:23.582Z,11.00
2023-05-07T07:31:45.198Z,11.00
2023-05-07T07:35:09.272Z,11.10
2023-05-07T07:38:30.774Z,11.10
2023-05-07T07:41:52.636Z,11.00
2023-05-07T07:45:13.916Z,11.10
2023-05-07T07:48:35.814Z,11.10
2023-05-07T07:52:00.377Z,11.20
2023-05-07T07:55:23.972Z,11.30
2023-05-07T07:58:45.893Z,11.30
2023-05-07T08:02:08.111Z,11.50
2023-05-07T08:05:29.735Z,11.50
2023-05-07T08:08:52.454Z,11.40
2023-05-07T08:12:14.267Z,11.50
2023-05-07T08:15:35.810Z,11.60
2023-05-07T08:18:57.031Z,11.70
2023-05-07T08:22:19.419Z,11.60
2023-05-07T08:25:43.521Z,11.50
2023-05-07T08:29:04.975Z,11.30
2023-05-07T08:32:26.323Z,11.40
2023-05-07T08:35:47.931Z,11.50
2023-05-07T08:39:09.640Z,11.60
2023-05-07T08:42:35.258Z,11.70
2023-05-07T08:45:59.785Z,11.70
2023-05-07T08:49:21.896Z,11.70
2023-05-07T08:52:43.165Z,11.70
2023-05-07T08:56:05.514Z,11.80
2023-05-07T08:59:28.237Z,11.70
2023-05-07T09:02:49.759Z,11.70
2023-05-07T09:06:11.110Z,11.70
2023-05-07T09:09:33.990Z,11.80
2023-05-07T09:12:55.588Z,11.90
2023-05-07T09:16:18.324Z,12.00
2023-05-07T09:19:39.590Z,12.20
2023-05-07T09:23:01.232Z,12.30
2023-05-07T09:26:23.871Z,12.30
2023-05-07T09:29:45.827Z,12.30
2023-05-07T09:33:08.612Z,12.30
2023-05-07T09:36:30.352Z,12.30
2023-05-07T09:39:52.531Z,12.30
2023-05-07T09:43:15.795Z,12.30
2023-05-07T09:46:40.313Z,12.40
2023-05-07T09:50:07.432Z,12.60
2023-05-07T09:53:30.805Z,12.70
2023-05-07T09:56:53.801Z,12.60
2023-05-07T10:00:16.558Z,12.60
2023-05-07T10:03:39.087Z,12.40
2023-05-07T10:07:03.352Z,12.50
2023-05-07T10:10:25.800Z,12.60
2023-05-07T10:13:49.924Z,12.70
2023-05-07T10:17:13.552Z,12.80
2023-05-07T10:20:36.458Z,12.70
2023-05-07T10:24:02.137Z,12.70
2023-05-07T10:27:26.072Z,12.70
2023-05-07T10:31:02.053Z,12.80
2023-05-07T10:34:30.156Z,12.70
2023-05-07T10:37:52.077Z,12.80
2023-05-07T10:41:16.206Z,12.80
2023-05-07T10:44:38.377Z,12.80
2023-05-07T10:48:28.820Z,12.80
2023-05-07T10:52:13.696Z,12.70
2023-05-07T10:55:35.115Z,12.80
2023-05-07T10:58:58.277Z,12.80
2023-05-07T11:02:19.551Z,12.90
2023-05-07T11:05:41.431Z,13.10
2023-05-07T11:09:03.072Z,13.20
2023-05-07T11:13:00.829Z,13.20
2023-05-07T11:16:24.990Z,13.20
2023-05-07T11:19:53.054Z,13.20
2023-05-07T11:23:48.751Z,13.60
2023-05-07T11:27:10.830Z,13.90
2023-05-07T11:30:32.340Z,14.10
2023-05-07T11:33:56.433Z,14.20
2023-05-07T11:37:19.714Z,14.30
2023-05-07T11:40:51.772Z,14.50
2023-05-07T11:44:13.061Z,14.60
2023-05-07T11:47:35.029Z,14.70
2023-05-07T11:51:03.190Z,14.90
2023-05-07T11:54:24.328Z,15.00
2023-05-07T11:57:46.796Z,15.00
2023-05-07T12:01:10.259Z,15.20
2023-05-07T12:04:32.362Z,15.10
2023-05-07T12:07:59.758Z,15.20
2023-05-07T12:11:26.077Z,15.30
2023-05-07T12:14:48.249Z,15.80
2023-05-07T12:18:10.216Z,16.10
2023-05-07T12:21:32.132Z,16.00
2023-05-07T12:25:00.712Z,15.90
2023-05-07T12:28:22.452Z,16.00
2023-05-07T12:31:44.251Z,16.00
2023-05-07T12:35:08.469Z,16.10
2023-05-07T12:38:39.321Z,16.20
2023-05-07T12:42:02.215Z,16.10
2023-05-07T12:45:23.523Z,16.10
2023-05-07T12:48:47.552Z,16.10
2023-05-07T12:52:09.164Z,16.30
2023-05-07T12:55:34.745Z,16.40
2023-05-07T12:59:00.763Z,16.30
2023-05-07T13:02:22.497Z,16.50
2023-05-07T13:05:44.056Z,16.90
2023-05-07T13:09:06.736Z,17.10
2023-05-07T13:12:28.334Z,17.00
2023-05-07T13:15:50.934Z,17.10
2023-05-07T13:19:12.259Z,17.20
2023-05-07T13:22:34.310Z,17.10
2023-05-07T13:25:56.915Z,17.10
2023-05-07T13:29:18.746Z,17.10
2023-05-07T13:32:42.451Z,16.80
2023-05-07T13:36:06.534Z,16.80
2023-05-07T13:39:29.396Z,16.80
2023-05-07T13:42:51.996Z,16.70
2023-05-07T13:46:13.463Z,16.80
2023-05-07T13:49:36.476Z,16.90
2023-05-07T13:52:58.137Z,16.80
2023-05-07T13:56:21.141Z,17.00
2023-05-07T13:59:42.881Z,17.00
2023-05-07T14:03:06.155Z,16.90
2023-05-07T14:06:29.389Z,17.00
2023-05-07T14:09:50.831Z,17.00
2023-05-07T14:13:12.688Z,17.20
2023-05-07T14:16:34.374Z,17.20
2023-05-07T14:19:56.614Z,17.20
2023-05-07T14:23:20.488Z,17.30
2023-05-07T14:26:42.048Z,17.20
2023-05-07T14:30:03.443Z,17.30
2023-05-07T14:33:24.715Z,17.10
2023-05-07T14:36:46.141Z,17.20
2023-05-07T14:40:10.596Z,17.40
2023-05-07T14:43:32.370Z,17.50
2023-05-07T14:46:53.559Z,17.50
2023-05-07T14:50:15.005Z,17.50
2023-05-07T14:53:36.418Z,17.50
2023-05-07T14:56:59.367Z,17.30
2023-05-07T15:00:21.452Z,17.50
2023-05-07T15:03:43.198Z,17.50
2023-05-07T15:07:04.538Z,17.30
2023-05-07T15:10:25.836Z,17.30
2023-05-07T15:13:48.363Z,17.20
2023-05-07T15:17:09.734Z,17.00
2023-05-07T15:20:31.351Z,17.00
2023-05-07T15:23:52.596Z,17.10
2023-05-07T15:27:13.851Z,17.10
2023-05-07T15:30:37.016Z,17.00
2023-05-07T15:33:58.313Z,16.90
2023-05-07T15:37:19.555Z,17.00
2023-05-07T15:40:42.703Z,16.90
2023-05-07T15:44:04.320Z,16.90
2023-05-07T15:47:27.286Z,16.80
2023-05-07T15:50:48.473Z,16.70
2023-05-07T15:54:09.761Z,16.80
2023-05-07T15:57:32.411Z,16.80
2023-05-07T16:00:54.165Z,16.90
2023-05-07T16:04:16.831Z,16.80
2023-05-07T16:07:38.397Z,16.80
2023-05-07T16:11:00.431Z,16.80
2023-05-07T16:14:22.079Z,16.80
2023-05-07T16:17:43.534Z,16.70
2023-05-07T16:21:07.449Z,16.70
2023-05-07T16:24:29.136Z,16.70
2023-05-07T16:27:50.384Z,16.70
2023-05-07T16:31:12.001Z,16.70
2023-05-07T16:34:33.364Z,16.80
2023-05-07T16:37:55.955Z,16.80
2023-05-07T16:41:17.235Z,16.80
2023-05-07T16:44:39.076Z,16.80
2023-05-07T16:48:00.706Z,16.80
2023-05-07T16:51:22.592Z,16.80
2023-05-07T16:54:45.603Z,16.80
2023-05-07T16:58:08.039Z,16.80
2023-05-07T17:01:32.672Z,16.90
2023-05-07T17:04:54.184Z,16.90
2023-05-07T17:08:15.761Z,16.90
2023-05-07T17:11:38.624Z,16.90
2023-05-07T17:15:00.247Z,16.90
2023-05-07T17:18:21.463Z,16.90
2023-05-07T17:21:42.728Z,17.00
2023-05-07T17:25:04.293Z,16.90
2023-05-07T17:28:27.353Z,16.90
2023-05-07T17:31:49.005Z,16.90
2023-05-07T17:35:10.736Z,16.90
2023-05-07T17:38:32.098Z,16.90
2023-05-07T17:41:53.665Z,17.00
2023-05-07T17:45:17.436Z,16.90
2023-05-07T17:48:38.746Z,16.80
2023-05-07T17:52:00.280Z,16.80
2023-05-07T17:55:21.853Z,16.60
2023-05-07T17:58:58.181Z,16.60
2023-05-07T18:02:21.920Z,16.50
2023-05-07T18:05:43.716Z,16.40
2023-05-07T18:09:05.292Z,16.40
2023-05-07T18:12:27.690Z,16.30
2023-05-07T18:15:49.707Z,16.30
2023-05-07T18:19:12.538Z,16.20
2023-05-07T18:22:33.824Z,16.10
2023-05-07T18:25:55.388Z,16.00
2023-05-07T18:29:16.854Z,15.90
2023-05-07T18:32:38.209Z,15.90
2023-05-07T18:36:01.289Z,15.90
2023-05-07T18:39:22.963Z,15.80
2023-05-07T18:42:44.331Z,15.80
2023-05-07T18:46:06.460Z,15.70
2023-05-07T18:49:28.051Z,15.50
2023-05-07T18:52:50.862Z,15.50
2023-05-07T18:56:12.151Z,15.40
2023-05-07T18:59:33.718Z,15.40
2023-05-07T19:02:54.999Z,15.30
2023-05-07T19:06:16.731Z,15.30
2023-05-07T19:09:42.398Z,15.20
2023-05-07T19:13:09.386Z,15.10
2023-05-07T19:16:30.709Z,15.10
2023-05-07T19:19:52.396Z,15.00
2023-05-07T19:23:13.897Z,15.10
2023-05-07T19:26:36.683Z,15.00
2023-05-07T19:29:58.424Z,14.90
2023-05-07T19:33:19.992Z,14.80
2023-05-07T19:36:41.669Z,14.70
2023-05-07T19:40:05.201Z,14.60
2023-05-07T19:43:27.916Z,14.50
2023-05-07T19:46:49.598Z,14.50
2023-05-07T19:50:11.765Z,14.40
2023-05-07T19:53:33.106Z,14.40
2023-05-07T19:56:54.327Z,14.30
2023-05-07T20:00:17.726Z,14.30
2023-05-07T20:03:39.009Z,14.30
2023-05-07T20:07:00.622Z,14.20
2023-05-07T20:10:22.433Z,14.10
2023-05-07T20:13:44.194Z,14.10
2023-05-07T20:17:07.173Z,14.00
2023-05-07T20:20:28.983Z,13.90
2023-05-07T20:23:51.053Z,13.90
2023-05-07T20:27:12.480Z,13.90
2023-05-07T20:30:33.994Z,13.80
2023-05-07T20:33:57.004Z,13.80
2023-05-07T20:37:18.539Z,13.70
2023-05-07T20:40:40.080Z,13.70
2023-05-07T20:44:02.070Z,13.60
2023-05-07T20:47:23.320Z,13.60
2023-05-07T20:50:46.073Z,13.60
2023-05-07T20:54:08.565Z,13.50
2023-05-07T20:57:30.127Z,13.50
2023-05-07T21:00:51.694Z,13.40
2023-05-07T21:04:13.333Z,13.40
2023-05-07T21:07:36.322Z,13.40
2023-05-07T21:10:57.913Z,13.30
2023-05-07T21:14:19.808Z,13.20
2023-05-07T21:17:41.304Z,13.10
2023-05-07T21:21:02.949Z,13.00
2023-05-07T21:24:25.760Z,13.00
2023-05-07T21:27:47.314Z,13.00
2023-05-07T21:31:08.844Z,13.00
2023-05-07T21:34:30.045Z,12.90
2023-05-07T21:37:51.176Z,12.80
2023-05-07T21:41:14.369Z,12.80
2023-05-07T21:44:35.615Z,12.80
2023-05-07T21:47:57.253Z,12.80
2023-05-07T21:51:18.487Z,12.80
2023-05-07T21:54:40.153Z,12.80
2023-05-07T21:58:05.845Z,12.80
2023-05-07T22:01:27.666Z,12.70
2023-05-07T22:04:49.466Z,12.70
2023-05-07T22:08:11.111Z,12.70
2023-05-07T22:11:32.662Z,12.60
2023-05-07T22:14:55.246Z,12.60
2023-05-07T22:18:16.540Z,12.60
2023-05-07T22:21:37.832Z,12.60
2023-05-07T22:24:59.236Z,12.60
2023-05-07T22:28:21.382Z,12.50
2023-05-07T22:31:44.125Z,12.50
2023-05-07T22:35:06.754Z,12.50
2023-05-07T22:38:28.050Z,12.50
2023-05-07T22:41:49.659Z,12.50
2023-05-07T22:45:12.213Z,12.50
2023-05-07T22:48:35.307Z,12.50
2023-05-07T22:51:56.910Z,12.50
2023-05-07T22:55:18.669Z,12.50
2023-05-07T22:58:40.195Z,12.40
2023-05-07T23:02:01.661Z,12.40
2023-05-07T23:05:24.478Z,12.40
2023-05-07T23:08:45.834Z,12.40
2023-05-07T23:12:08.591Z,12.40
2023-05-07T23:15:30.297Z,12.40
2023-05-07T23:18:51.644Z,12.30
2023-05-07T23:22:15.795Z,12.30
2023-05-07T23:25:37.364Z,12.20
2023-05-07T23:28:58.968Z,12.20
2023-05-07T23:32:20.563Z,12.10
2023-05-07T23:35:42.228Z,12.10
2023-05-07T23:39:05.097Z,12.10
2023-05-07T23:42:27.046Z,12.10
2023-05-07T23:45:48.766Z,12.10
2023-05-07T23:49:09.963Z,12.00
2023-05-07T23:52:31.438Z,11.90
2023-05-07T23:55:54.259Z,11.90
2023-05-07T23:59:15.823Z,11.80
